Lawn Hill, Iowa
Current Conditions -  °F | °C
As of 5:53 AM on Friday 28 Nov 2014 (Local Time) from KMIW Reporting Station
Broken Clouds Broken Clouds  
Wind Chill:   Ceiling: 12000
Heat Index: 16°   Visibility: 10mi
Dew Point: 10°   Wind: 17mph
Humidity: 77%   Direction: 150°SSE
Pressure: 30.02"   Gusts: NA
Location:  42.2453°N, 93.1762°W
Report Text: KMIW 281153Z AUTO 15015KT 10SM BKN120 M09/M12 A3002 RMK AO2 SLP188 T10891122 11089 21111 58043
Loading
Personal Weather Stations






























Interactive Weather Map New forecast layout! Learn more

10-Day Weather Forecast

Advertisements
Track Severe Weather on mobile